• Join FlightAware (Why Join?)
  • Login
  • US Flag 
03:11AM EDT


 

Airport Tracker/Info


-or-


 

Live Flight TrackerFlight Track Log ✈ MTN8308 ✈ 09-Jul-2013 ✈ KEWR - KBWI

Flight Track Log - Related Links

Times and Time Zones

All times are in EDT time to prevent confusion due to time zone crossing. See the MTN8308 flight status page for this flight to view local times or setup timezone preferences in your user account.

Time Position Orientation Groundspeed Altitude Reporting Facility
EDT Latitude Longitude Course Direction KTS MPH feet Rate Location/Type
03:35AM 40.6500 -74.1833 270° West 108 124 1,200  Level New York TRACON
03:36AM 40.6500 -74.2167 270° West 103 119 1,700 540 Climbing New York TRACON
03:37AM 40.6333 -74.2500 237° Southwest 104 120 2,300 600 Climbing New York TRACON
03:38AM 40.6167 -74.2833 237° Southwest 104 120 2,900 600 Climbing New York TRACON
03:39AM 40.6000 -74.3167 237° Southwest 106 122 3,500 600 Climbing New York TRACON
03:40AM 40.6000 -74.3667 270° West 108 124 4,100 480 Climbing New York TRACON
03:41AM 40.6000 -74.4000 270° West 121 139 4,500 420 Climbing New York TRACON
03:42AM 40.6000 -74.4500 270° West 120 138 5,000 420 Climbing New York TRACON
03:43AM 40.6000 -74.5000 270° West 120 138 5,400 360 Climbing New York TRACON
03:44AM 40.6000 -74.5333 270° West 121 139 5,800 240 Climbing New York TRACON
03:45AM 40.5833 -74.5833 246° West 131 151 6,000 60 Climbing New York TRACON
03:46AM 40.5833 -74.6333 270° West 145 167 6,000  Level New York TRACON
03:48AM 40.5720 -74.7012 258° West  Level FlightAware Approximate
03:52AM 40.5667 -74.9167 237° Southwest 147 169 6,000  Level Philadelphia TRACON
03:52AM 40.5667 -74.9500 270° West 148 170 6,000  Level Philadelphia TRACON
03:53AM 40.5667 -75.0000 270° West 152 175 6,000  Level Philadelphia TRACON
03:54AM 40.5667 -75.0500 270° West 152 175 6,000  Level Philadelphia TRACON
03:55AM 40.5287 -75.0451 225° Southwest  Level FlightAware Approximate
03:55AM 40.5500 -75.1000 246° West 150 173 6,000  Level Philadelphia TRACON
03:56AM 40.5016 -75.0812 225° Southwest  Level FlightAware Approximate
03:56AM 40.5500 -75.1667 270° West 150 173 6,000  Level Philadelphia TRACON
03:57AM 40.4800 -75.1233 237° Southwest  Level FlightAware Approximate
03:57AM 40.5500 -75.2167 270° West 152 175 6,000  Level Philadelphia TRACON
03:58AM 40.5500 -75.2667 270° West 157 181 6,000  Level Philadelphia TRACON
03:59AM 40.5167 -75.3000 217° Southwest 157 181 6,000  Level Philadelphia TRACON
04:00AM 40.4833 -75.3333 217° Southwest 156 180 6,000  Level Philadelphia TRACON
04:01AM 40.4500 -75.3667 217° Southwest 154 177 6,000  Level Philadelphia TRACON
04:02AM 40.4167 -75.4000 217° Southwest 153 176 6,000  Level Philadelphia TRACON
04:03AM 40.3833 -75.4500 229° Southwest 154 177 6,000  Level Philadelphia TRACON
04:04AM 40.3500 -75.4833 217° Southwest 154 177 6,000  Level Philadelphia TRACON
04:05AM 40.3167 -75.5167 217° Southwest 152 175 6,000  Level Philadelphia TRACON
04:06AM 40.2833 -75.5500 217° Southwest 150 173 6,000  Level Philadelphia TRACON
04:07AM 40.2500 -75.5833 217° Southwest 153 176 6,000  Level Philadelphia TRACON
04:08AM 40.2167 -75.6167 217° Southwest 154 177 6,000  Level Philadelphia TRACON
04:09AM 40.1833 -75.6500 217° Southwest 155 178 6,000  Level Philadelphia TRACON
04:10AM 40.1500 -75.6833 217° Southwest 154 177 6,000  Level Philadelphia TRACON
04:11AM 40.1167 -75.7167 217° Southwest 151 174 6,000  Level Philadelphia TRACON
04:12AM 40.0833 -75.7500 217° Southwest 153 176 6,000  Level Philadelphia TRACON
04:13AM 40.0500 -75.7833 217° Southwest 152 175 6,000  Level Philadelphia TRACON
04:14AM 40.0167 -75.8167 217° Southwest 154 177 6,000  Level Philadelphia TRACON
04:15AM 39.9833 -75.8500 217° Southwest 155 178 6,000  Level Philadelphia TRACON
04:16AM 39.9500 -75.8833 217° Southwest 154 177 6,000  Level Philadelphia TRACON
04:18AM 39.8667 -75.9667 218° Southwest 154 177 6,000  Level Potomac TRACON
04:19AM 39.8333 -76.0000 218° Southwest 154 177 6,000  Level Potomac TRACON
04:20AM 39.8000 -76.0333 218° Southwest 154 177 6,000  Level Potomac TRACON
04:21AM 39.7667 -76.0667 218° Southwest 153 176 6,000 -300 Level Potomac TRACON
04:22AM 39.7333 -76.1000 218° Southwest 167 192 5,500 -540 Descending Potomac TRACON
04:23AM 39.7000 -76.1333 218° Southwest 168 193 5,000 -540 Descending Potomac TRACON
04:24AM 39.6667 -76.1833 229° Southwest 168 193 4,500 -540 Descending Potomac TRACON
04:25AM 39.6333 -76.2167 218° Southwest 167 192 4,000 -540 Descending Potomac TRACON
04:26AM 39.5833 -76.2500 207° Southwest 168 193 3,500 -540 Descending Potomac TRACON
04:27AM 39.5500 -76.2833 218° Southwest 168 193 3,000 -300 Descending Potomac TRACON
04:28AM 39.5167 -76.3167 218° Southwest 155 178 3,000  Level Potomac TRACON
04:29AM 39.4833 -76.3667 229° Southwest 150 173 3,000  Level Potomac TRACON
04:30AM 39.4500 -76.4000 218° Southwest 150 173 3,000  Level Potomac TRACON
04:31AM 39.4167 -76.4167 201° Southwest 149 171 3,000  Level Potomac TRACON
04:32AM 39.3833 -76.4500 218° Southwest 148 170 3,000  Level Potomac TRACON
04:33AM 39.3500 -76.4833 218° Southwest 149 171 3,000 -60 Level Potomac TRACON
04:34AM 39.3167 -76.5167 218° Southwest 150 173 2,900 -300 Descending Potomac TRACON
04:35AM 39.2833 -76.5500 218° Southwest 160 184 2,400 -540 Descending Potomac TRACON